Time;durP1;ratioP1;P1;durP2;ratioP2;P2;SDS_P1;SDS_P2;PMS_P1;PMS_P2;Temp;Humidity;BMP_temperature;BMP_pressure;BME280_temperature;BME280_humidity;BME280_pressure;Samples;Min_cycle;Max_cycle;Signal;HPM_P1;HPM_P2
2021/10/23 00:01:58;;;;;;;6.80;2.15;;;;;;;12.44;43.70;100328.56;4419567;32;34288;-48
2021/10/23 00:04:26;;;;;;;7.22;2.40;;;;;;;12.40;44.48;100319.88;4419689;32;33814;-48
2021/10/23 00:06:53;;;;;;;8.57;2.00;;;;;;;12.42;43.92;100323.34;4419792;32;35446;-48
2021/10/23 00:09:21;;;;;;;10.45;2.25;;;;;;;12.55;42.53;100321.63;4419876;32;34413;-49
2021/10/23 00:11:49;;;;;;;6.90;2.03;;;;;;;12.47;43.96;100329.44;4419893;32;33542;-48
2021/10/23 00:14:16;;;;;;;5.97;1.75;;;;;;;12.22;44.09;100331.16;4419610;32;34167;-48
2021/10/23 00:16:44;;;;;;;6.20;2.25;;;;;;;12.50;43.72;100334.66;4419441;32;35900;-50
2021/10/23 00:19:12;;;;;;;6.03;1.92;;;;;;;12.44;44.36;100329.44;4419314;32;34260;-49
2021/10/23 00:21:39;;;;;;;6.50;1.85;;;;;;;12.46;44.61;100338.13;4419302;32;34101;-48
2021/10/23 00:24:07;;;;;;;9.98;2.65;;;;;;;12.54;44.46;100332.91;4419182;32;33755;-49
2021/10/23 00:26:34;;;;;;;9.55;2.10;;;;;;;12.36;44.83;100332.91;4419283;32;35373;-50
2021/10/23 00:29:02;;;;;;;5.87;1.60;;;;;;;12.40;45.11;100332.91;4419939;32;34286;-49
2021/10/23 00:31:30;;;;;;;5.07;1.60;;;;;;;12.44;45.20;100333.78;4419404;32;33349;-49
2021/10/23 00:33:57;;;;;;;5.45;1.33;;;;;;;12.21;45.21;100341.59;4419761;32;34701;-49
2021/10/23 00:36:25;;;;;;;3.33;1.15;;;;;;;12.05;45.83;100340.66;4418035;32;35797;-49
2021/10/23 00:38:52;;;;;;;9.23;1.92;;;;;;;12.27;45.72;100336.38;4419103;32;35216;-49
2021/10/23 00:41:20;;;;;;;8.05;1.60;;;;;;;12.33;45.36;100333.78;4419093;32;33511;-48
2021/10/23 00:43:47;;;;;;;7.25;2.30;;;;;;;12.34;45.67;100332.91;4418825;32;33999;-49
2021/10/23 00:46:15;;;;;;;4.97;1.50;;;;;;;12.14;45.74;100334.63;4419045;32;35853;-49
2021/10/23 00:48:43;;;;;;;7.05;1.35;;;;;;;12.20;45.83;100340.72;4418684;32;34858;-49
2021/10/23 00:51:12;;;;;;;1.83;0.90;;;;;;;12.17;45.28;100340.69;4417898;32;33942;-49
2021/10/23 00:53:39;;;;;;;4.75;1.30;;;;;;;12.07;46.13;100340.69;4417779;32;34053;-49
2021/10/23 00:56:07;;;;;;;4.57;1.17;;;;;;;12.16;45.98;100338.97;4419842;32;35913;-48
2021/10/23 00:58:35;;;;;;;6.00;1.30;;;;;;;12.12;45.89;100339.81;4420783;32;35321;-49
2021/10/23 01:01:02;;;;;;;5.82;1.27;;;;;;;12.16;45.73;100332.88;4420800;32;34774;-48
2021/10/23 01:03:30;;;;;;;4.72;1.15;;;;;;;12.21;45.95;100332.03;4421091;32;34754;-50
2021/10/23 01:05:58;;;;;;;3.90;1.00;;;;;;;12.17;45.87;100332.03;4421315;32;35029;-48
2021/10/23 01:08:26;;;;;;;6.22;2.03;;;;;;;12.21;45.90;100338.97;4420778;32;34234;-48
2021/10/23 01:10:54;;;;;;;3.70;1.15;;;;;;;12.03;46.30;100331.09;4421490;32;34634;-49
2021/10/23 01:13:21;;;;;;;6.22;2.10;;;;;;;12.02;46.12;100334.59;4420038;32;34008;-49
2021/10/23 01:15:49;;;;;;;6.12;1.25;;;;;;;12.14;46.00;100335.50;4421165;32;34904;-48
2021/10/23 01:18:16;;;;;;;3.08;0.93;;;;;;;12.10;45.89;100332.84;4421339;32;34424;-48
2021/10/23 01:20:44;;;;;;;5.70;1.40;;;;;;;12.16;45.92;100338.97;4420969;32;33379;-49
2021/10/23 01:23:11;;;;;;;3.10;1.30;;;;;;;11.99;45.64;100329.34;4420367;32;33930;-49
2021/10/23 01:25:39;;;;;;;5.45;1.42;;;;;;;12.06;45.86;100331.13;4420742;32;35093;-49
2021/10/23 01:28:06;;;;;;;5.03;1.27;;;;;;;12.04;45.42;100338.94;4420875;32;34516;-48
2021/10/23 01:30:34;;;;;;;5.03;1.10;;;;;;;12.05;45.69;100339.81;4420334;32;34604;-49
2021/10/23 01:33:02;;;;;;;3.47;1.05;;;;;;;12.08;45.55;100345.03;4419165;32;34631;-50
2021/10/23 01:35:30;;;;;;;2.70;1.02;;;;;;;12.02;45.24;100339.81;4420031;32;36199;-50
2021/10/23 01:37:57;;;;;;;2.67;0.80;;;;;;;12.00;45.61;100342.41;4419770;32;34664;-50
2021/10/23 01:40:29;;;;;;;5.78;1.60;;;;;;;11.81;45.90;100352.78;4420320;32;34431;-49
2021/10/23 01:42:56;;;;;;;3.97;1.30;;;;;;;11.75;46.57;100350.13;4419914;32;34544;-51
2021/10/23 01:45:24;;;;;;;2.78;1.15;;;;;;;11.88;45.75;100354.53;4419803;32;34797;-49
2021/10/23 01:47:51;;;;;;;4.37;1.10;;;;;;;11.86;46.06;100366.69;4419675;32;34282;-49
2021/10/23 01:50:24;;;;;;;5.55;1.30;;;;;;;11.85;46.37;100373.63;4419905;32;34843;-49
2021/10/23 01:52:53;;;;;;;4.32;1.08;;;;;;;11.78;46.36;100368.41;4420054;32;34026;-50
2021/10/23 01:55:20;;;;;;;3.50;1.30;;;;;;;11.89;46.84;100370.16;4420280;32;35608;-49
2021/10/23 01:57:48;;;;;;;4.87;1.20;;;;;;;11.93;46.51;100384.09;4419015;32;34716;-49
2021/10/23 02:00:17;;;;;;;4.95;1.30;;;;;;;11.78;47.12;100381.44;4419147;32;33632;-49
2021/10/23 02:02:45;;;;;;;9.00;1.83;;;;;;;11.79;46.94;100383.19;4420313;32;34564;-48
2021/10/23 02:05:13;;;;;;;3.60;1.00;;;;;;;11.72;47.50;100391.84;4420553;32;35389;-49
2021/10/23 02:07:40;;;;;;;5.15;0.90;;;;;;;11.85;46.80;100391.88;4419433;32;34269;-49
2021/10/23 02:10:09;;;;;;;3.70;1.02;;;;;;;11.85;46.92;100389.28;4420231;32;33680;-50
2021/10/23 02:12:37;;;;;;;4.47;1.15;;;;;;;11.74;47.39;100392.72;4419886;32;33947;-49
2021/10/23 02:15:05;;;;;;;3.90;1.25;;;;;;;11.94;47.23;100398.84;4419362;32;35338;-50
2021/10/23 02:17:36;;;;;;;5.40;1.17;;;;;;;11.98;47.19;100395.41;4419424;32;35041;-50
2021/10/23 02:20:09;;;;;;;3.92;1.42;;;;;;;12.09;47.44;100406.75;4419618;32;33737;-50
2021/10/23 02:22:38;;;;;;;5.25;1.25;;;;;;;12.09;47.36;100401.53;4419414;32;34337;-53
2021/10/23 02:25:07;;;;;;;3.55;1.15;;;;;;;11.96;47.56;100403.22;4418002;32;34537;-51
2021/10/23 02:27:35;;;;;;;3.83;1.27;;;;;;;12.02;47.50;100402.38;4419216;32;34469;-51
2021/10/23 02:30:07;;;;;;;4.07;1.12;;;;;;;11.90;47.49;100407.53;4419242;32;34045;-52
2021/10/23 02:32:36;;;;;;;3.90;1.08;;;;;;;11.87;47.49;100407.50;4419405;32;33831;-49
2021/10/23 02:35:04;;;;;;;6.60;1.37;;;;;;;11.84;47.08;100415.34;4419341;32;35130;-49
2021/10/23 02:37:32;;;;;;;7.62;1.30;;;;;;;11.92;47.52;100422.31;4417871;32;34035;-49
2021/10/23 02:39:59;;;;;;;4.68;1.15;;;;;;;11.92;47.81;100424.06;4419260;32;33823;-52
2021/10/23 02:42:27;;;;;;;5.35;1.05;;;;;;;11.93;47.46;100424.03;4419404;32;33783;-50
2021/10/23 02:44:54;;;;;;;7.93;1.30;;;;;;;11.93;46.67;100433.63;4419552;32;35006;-49
2021/10/23 02:47:21;;;;;;;7.30;1.80;;;;;;;11.78;47.63;100430.94;4419569;32;35086;-49
2021/10/23 02:49:49;;;;;;;7.78;1.60;;;;;;;11.83;47.46;100435.31;4419702;32;33978;-49
2021/10/23 02:52:16;;;;;;;4.05;1.00;;;;;;;11.83;46.42;100437.03;4419811;32;34762;-49
2021/10/23 02:54:44;;;;;;;4.10;1.27;;;;;;;11.93;47.41;100428.41;4419917;32;35357;-50
2021/10/23 02:57:11;;;;;;;5.12;1.35;;;;;;;11.81;47.22;100447.47;4419968;32;34183;-48
2021/10/23 02:59:40;;;;;;;7.15;1.40;;;;;;;11.80;47.77;100440.50;4418487;32;33121;-49
2021/10/23 03:02:08;;;;;;;5.68;1.00;;;;;;;11.91;47.88;100440.56;4419813;32;33835;-49
2021/10/23 03:04:36;;;;;;;3.37;1.08;;;;;;;11.71;48.06;100439.59;4419616;32;34622;-49
2021/10/23 03:07:03;;;;;;;3.80;0.85;;;;;;;11.86;47.66;100447.50;4419650;32;35234;-51
2021/10/23 03:09:31;;;;;;;2.85;1.02;;;;;;;11.74;47.72;100443.09;4419600;32;34540;-49
2021/10/23 03:11:58;;;;;;;5.80;0.93;;;;;;;11.78;47.66;100455.28;4419476;32;34189;-49
2021/10/23 03:14:26;;;;;;;2.92;1.00;;;;;;;11.68;47.18;100457.81;4419461;32;35522;-49
2021/10/23 03:16:53;;;;;;;3.97;1.17;;;;;;;11.58;47.57;100452.50;4419934;32;34630;-49
2021/10/23 03:19:21;;;;;;;2.92;1.12;;;;;;;11.58;47.67;100457.72;4419641;32;34462;-48
2021/10/23 03:21:48;;;;;;;4.68;1.00;;;;;;;11.65;47.25;100463.84;4419459;32;33855;-49
2021/10/23 03:24:16;;;;;;;1.77;0.80;;;;;;;11.57;46.69;100460.31;4419477;32;34797;-48
2021/10/23 03:26:43;;;;;;;2.60;0.77;;;;;;;11.51;46.22;100458.53;4419340;32;34356;-49
2021/10/23 03:29:11;;;;;;;2.95;1.20;;;;;;;11.43;46.90;100462.81;4419461;32;33694;-50
2021/10/23 03:31:38;;;;;;;3.83;1.00;;;;;;;11.55;46.90;100467.28;4419931;32;33864;-49
2021/10/23 03:34:06;;;;;;;7.95;2.05;;;;;;;11.52;47.26;100472.44;4419091;32;35426;-50
2021/10/23 03:36:35;;;;;;;4.78;1.45;;;;;;;11.56;47.12;100484.63;4419022;32;34955;-49
2021/10/23 03:39:04;;;;;;;3.87;1.30;;;;;;;11.63;46.19;100491.63;4418678;32;34551;-49
2021/10/23 03:41:31;;;;;;;5.97;1.50;;;;;;;11.68;46.60;100484.75;4418712;32;34830;-49
2021/10/23 03:44:00;;;;;;;5.12;1.10;;;;;;;11.57;47.21;100491.59;4418637;32;35229;-49
2021/10/23 03:46:28;;;;;;;4.50;1.35;;;;;;;11.77;47.24;100496.94;4418449;32;34251;-49
2021/10/23 03:48:55;;;;;;;4.40;1.33;;;;;;;11.54;47.26;100491.56;4415522;32;91690;-49
2021/10/23 03:51:23;;;;;;;3.12;1.15;;;;;;;11.51;46.95;100497.63;4418509;32;34500;-50
2021/10/23 03:53:50;;;;;;;6.82;1.98;;;;;;;11.67;47.24;100492.53;4418731;32;35213;-49
2021/10/23 03:56:18;;;;;;;3.72;1.25;;;;;;;11.66;47.66;100496.84;4417807;32;35561;-50
2021/10/23 03:58:45;;;;;;;2.87;0.95;;;;;;;11.50;47.60;100492.41;4417569;32;33904;-48
2021/10/23 04:01:13;;;;;;;4.05;1.40;;;;;;;11.40;47.39;100490.59;4418603;32;34747;-50
2021/10/23 04:03:41;;;;;;;2.55;1.23;;;;;;;11.35;47.73;100495.78;4418609;32;34857;-49
2021/10/23 04:06:09;;;;;;;3.95;1.20;;;;;;;11.37;47.66;100495.78;4418957;32;34437;-48
2021/10/23 04:08:36;;;;;;;3.05;0.85;;;;;;;11.40;47.68;100498.41;4418803;32;33531;-49
2021/10/23 04:11:04;;;;;;;7.10;1.20;;;;;;;11.40;47.41;100507.09;4418826;32;34495;-49
2021/10/23 04:13:31;;;;;;;4.87;1.20;;;;;;;11.35;48.02;100506.19;4419119;32;34735;-48
2021/10/23 04:15:59;;;;;;;5.85;1.35;;;;;;;11.46;47.83;100504.53;4417707;32;34360;-49
2021/10/23 04:18:27;;;;;;;3.55;1.17;;;;;;;11.33;47.49;100499.22;4419000;32;34171;-48
2021/10/23 04:20:55;;;;;;;6.07;1.20;;;;;;;11.29;47.60;100508.72;4418929;32;34377;-49
2021/10/23 04:23:23;;;;;;;4.03;1.15;;;;;;;11.26;47.91;100508.72;4417283;32;35225;-50
2021/10/23 04:25:50;;;;;;;5.57;1.30;;;;;;;11.17;47.81;100506.03;4419188;32;35251;-49
2021/10/23 04:28:18;;;;;;;4.18;1.27;;;;;;;11.26;47.40;100511.34;4417816;32;34215;-49
2021/10/23 04:30:45;;;;;;;7.00;1.80;;;;;;;11.31;47.77;100508.75;4419671;32;33956;-50
2021/10/23 04:33:13;;;;;;;3.33;1.12;;;;;;;11.42;47.32;100523.59;4421027;32;35781;-50
2021/10/23 04:35:40;;;;;;;3.47;0.98;;;;;;;11.19;47.33;100524.28;4420990;32;35318;-49
2021/10/23 04:38:08;;;;;;;3.75;1.08;;;;;;;11.30;47.52;100528.72;4421001;32;33478;-49
2021/10/23 04:40:37;;;;;;;5.32;1.27;;;;;;;11.28;47.76;100526.97;4419707;32;34770;-50
2021/10/23 04:43:05;;;;;;;4.12;1.33;;;;;;;11.32;48.07;100521.78;4420840;32;35351;-49
2021/10/23 04:45:32;;;;;;;3.15;1.37;;;;;;;11.32;48.03;100516.56;4420732;32;34437;-50
2021/10/23 04:48:00;;;;;;;9.20;1.77;;;;;;;11.26;47.83;100516.53;4420817;32;33622;-49
2021/10/23 04:50:27;;;;;;;3.72;1.40;;;;;;;11.21;47.62;100523.44;4420605;32;33782;-48
2021/10/23 04:52:55;;;;;;;4.20;1.12;;;;;;;11.28;47.92;100525.22;4420797;32;34733;-50
2021/10/23 04:55:22;;;;;;;6.78;1.42;;;;;;;11.28;47.93;100525.22;4421022;32;35216;-49
2021/10/23 04:57:50;;;;;;;5.72;1.23;;;;;;;11.25;48.20;100530.41;4420991;32;33477;-49
2021/10/23 05:00:17;;;;;;;4.35;1.30;;;;;;;11.37;47.78;100530.50;4420957;32;34621;-48
2021/10/23 05:02:45;;;;;;;4.37;1.10;;;;;;;11.37;47.99;100525.31;4420985;32;35655;-49
2021/10/23 05:05:13;;;;;;;2.25;1.08;;;;;;;11.27;48.08;100533.88;4420929;32;34355;-48
2021/10/23 05:07:40;;;;;;;4.97;1.58;;;;;;;11.00;48.53;100538.87;4421058;32;33736;-49
2021/10/23 05:10:08;;;;;;;5.18;1.20;;;;;;;11.11;48.53;100536.34;4421050;32;35093;-48
2021/10/23 05:12:36;;;;;;;3.17;1.52;;;;;;;11.10;48.71;100545.87;4421247;32;35553;-48
2021/10/23 05:15:04;;;;;;;3.78;1.75;;;;;;;11.17;48.25;100537.25;4420614;32;35131;-49
2021/10/23 05:17:32;;;;;;;7.62;2.05;;;;;;;11.17;48.46;100546.84;4420377;32;34045;-53
2021/10/23 05:20:00;;;;;;;4.03;1.17;;;;;;;11.28;48.20;100555.59;4421039;32;33904;-48
2021/10/23 05:22:27;;;;;;;3.22;1.10;;;;;;;10.96;48.89;100565.69;4419214;32;35433;-49
2021/10/23 05:24:55;;;;;;;3.33;1.20;;;;;;;11.05;48.84;100558.00;4420909;32;35146;-48
2021/10/23 05:27:22;;;;;;;8.35;1.75;;;;;;;10.92;48.67;100557.84;4419588;32;33540;-49
2021/10/23 05:29:49;;;;;;;4.15;1.30;;;;;;;10.94;48.97;100559.59;4420960;32;33857;-50
2021/10/23 05:32:17;;;;;;;3.97;1.10;;;;;;;10.95;48.48;100565.69;4420476;32;36022;-50
2021/10/23 05:34:46;;;;;;;5.45;1.83;;;;;;;10.86;49.08;100582.09;4420609;32;34490;-49
2021/10/23 05:37:13;;;;;;;6.97;1.33;;;;;;;10.78;49.46;100588.94;4420733;32;33999;-48
2021/10/23 05:39:41;;;;;;;3.17;1.10;;;;;;;11.08;48.99;100599.66;4420642;32;33818;-48
2021/10/23 05:42:08;;;;;;;5.43;1.17;;;;;;;11.14;48.79;100602.34;4419927;32;34835;-51
2021/10/23 05:44:36;;;;;;;5.40;1.55;;;;;;;11.04;48.65;100605.72;4420261;32;35445;-49
2021/10/23 05:47:03;;;;;;;4.15;1.30;;;;;;;10.97;48.79;100605.63;4420234;32;33447;-49
2021/10/23 05:49:31;;;;;;;6.57;1.40;;;;;;;11.10;48.78;100607.50;4420335;32;33826;-49
2021/10/23 05:51:58;;;;;;;7.20;1.55;;;;;;;11.10;48.84;100613.56;4421376;32;34596;-48
2021/10/23 05:54:27;;;;;;;3.92;1.67;;;;;;;11.18;48.97;100622.34;4420738;32;34362;-52
2021/10/23 05:56:55;;;;;;;3.92;1.60;;;;;;;11.20;48.79;100630.16;4422912;32;33978;-51
2021/10/23 05:59:23;;;;;;;5.30;1.58;;;;;;;11.42;48.64;100627.78;4422888;32;33568;-50
2021/10/23 06:01:58;;;;;;;5.95;2.50;;;;;;;11.50;48.63;100635.69;4422872;32;34918;-54
2021/10/23 06:04:26;;;;;;;6.50;1.75;;;;;;;11.52;48.38;100637.44;4422426;32;34150;-50
2021/10/23 06:06:53;;;;;;;3.95;1.65;;;;;;;11.64;48.48;100638.41;4422221;32;33897;-50
2021/10/23 06:09:21;;;;;;;7.53;2.03;;;;;;;11.89;47.48;100645.59;4422836;32;34757;-50
2021/10/23 06:11:48;;;;;;;4.60;1.60;;;;;;;12.01;47.68;100648.28;4423014;32;35840;-50
2021/10/23 06:14:16;;;;;;;5.22;2.17;;;;;;;12.05;47.82;100648.31;4421657;32;34898;-50
2021/10/23 06:16:43;;;;;;;4.72;1.90;;;;;;;12.14;47.36;100655.34;4422799;32;33304;-50
2021/10/23 06:19:11;;;;;;;4.85;2.33;;;;;;;12.50;52.91;100666.03;4422875;32;33902;-52
2021/10/23 06:21:38;;;;;;;7.95;2.30;;;;;;;12.74;46.97;100668.75;4423135;32;35939;-50
2021/10/23 06:24:05;;;;;;;8.32;2.45;;;;;;;12.89;47.06;100668.81;4422849;32;35000;-51
2021/10/23 06:26:33;;;;;;;10.70;2.97;;;;;;;12.93;46.33;100674.06;4420430;32;34156;-51
2021/10/23 06:29:00;;;;;;;6.22;2.20;;;;;;;12.93;45.88;100675.78;4420454;32;34005;-51
2021/10/23 06:31:28;;;;;;;7.40;2.25;;;;;;;12.99;45.26;100676.69;4420328;32;34942;-51
2021/10/23 06:33:55;;;;;;;7.15;1.98;;;;;;;12.93;45.37;100686.25;4419628;32;34210;-53
2021/10/23 06:36:23;;;;;;;5.75;1.55;;;;;;;12.91;45.81;100687.97;4421893;32;33203;-50
2021/10/23 06:38:50;;;;;;;4.60;1.85;;;;;;;13.05;45.53;100695.00;4422790;32;33918;-52
2021/10/23 06:41:18;;;;;;;4.50;1.60;;;;;;;12.98;45.61;100701.06;4422688;32;35738;-52
2021/10/23 06:43:45;;;;;;;3.97;1.30;;;;;;;13.05;45.44;100708.06;4422804;32;34222;-49
2021/10/23 06:46:13;;;;;;;2.75;1.30;;;;;;;13.03;45.05;100707.16;4422827;32;33969;-53
2021/10/23 06:48:41;;;;;;;6.68;1.55;;;;;;;13.10;44.93;100709.00;4422757;32;33798;-51
2021/10/23 06:51:08;;;;;;;5.47;1.80;;;;;;;13.14;44.86;100715.97;4422594;32;34818;-52
2021/10/23 06:53:36;;;;;;;5.75;1.35;;;;;;;13.10;46.65;100724.66;4422433;32;34301;-51
2021/10/23 06:56:03;;;;;;;3.75;1.23;;;;;;;13.26;47.16;100729.94;4422640;32;33359;-50
2021/10/23 06:58:31;;;;;;;5.00;1.10;;;;;;;13.14;44.61;100736.84;4422684;32;33896;-50
2021/10/23 07:00:59;;;;;;;4.78;1.50;;;;;;;13.39;44.19;100730.84;4421566;32;34858;-50
2021/10/23 07:03:27;;;;;;;4.28;1.20;;;;;;;13.51;44.55;100739.59;4422663;32;34873;-51
2021/10/23 07:05:55;;;;;;;6.12;1.55;;;;;;;13.69;43.75;100744.00;4422575;32;33486;-51
2021/10/23 07:08:22;;;;;;;6.25;1.65;;;;;;;13.63;42.81;100756.19;4421335;32;33844;-51
2021/10/23 07:10:50;;;;;;;3.95;1.25;;;;;;;13.54;43.65;100757.03;4422362;32;34665;-50
2021/10/23 07:13:17;;;;;;;4.12;1.27;;;;;;;13.77;43.55;100752.72;4421301;32;35243;-50
2021/10/23 07:15:44;;;;;;;5.35;1.52;;;;;;;13.95;42.89;100754.50;4422409;32;33597;-51
2021/10/23 07:18:12;;;;;;;4.65;1.70;;;;;;;13.77;42.68;100757.97;4422370;32;34127;-52
2021/10/23 07:20:39;;;;;;;3.08;1.27;;;;;;;13.84;42.86;100753.59;4422107;32;34833;-49
2021/10/23 07:23:07;;;;;;;4.62;1.40;;;;;;;13.80;43.22;100757.97;4422518;32;34374;-51
2021/10/23 07:25:34;;;;;;;5.55;1.60;;;;;;;13.93;42.96;100759.72;4421965;32;33584;-51
2021/10/23 07:28:02;;;;;;;4.35;1.12;;;;;;;13.69;43.40;100759.69;4421304;32;34675;-51
2021/10/23 07:30:35;;;;;;;3.70;1.17;;;;;;;13.82;43.21;100758.84;4421647;32;34706;-50
2021/10/23 07:33:03;;;;;;;5.55;1.20;;;;;;;13.88;42.93;100765.84;4422384;32;34411;-50
2021/10/23 07:35:30;;;;;;;4.35;1.27;;;;;;;13.98;42.38;100768.44;4422310;32;33549;-52
2021/10/23 07:37:58;;;;;;;4.68;1.55;;;;;;;14.10;42.47;100765.84;4422372;32;34679;-52
2021/10/23 07:40:25;;;;;;;4.18;1.40;;;;;;;14.28;42.54;100772.84;4422336;32;34337;-50
2021/10/23 07:42:53;;;;;;;3.75;1.27;;;;;;;14.42;42.42;100771.12;4422307;32;34253;-51
2021/10/23 07:45:20;;;;;;;4.40;1.80;;;;;;;14.65;42.23;100771.09;4421170;32;34472;-51
2021/10/23 07:47:48;;;;;;;3.92;1.40;;;;;;;14.65;46.49;100773.72;4420178;32;33792;-50
2021/10/23 07:50:15;;;;;;;3.35;1.52;;;;;;;15.00;45.23;100771.03;4420539;32;34984;-52
2021/10/23 07:52:45;;;;;;;8.07;1.48;;;;;;;15.14;44.45;100780.56;4420619;32;35278;-50
2021/10/23 07:55:12;;;;;;;5.18;1.50;;;;;;;15.25;42.50;100777.94;4420472;32;34435;-49
2021/10/23 07:57:41;;;;;;;6.05;1.17;;;;;;;15.29;40.09;100785.78;4421310;32;33735;-51
2021/10/23 08:00:10;;;;;;;4.70;1.62;;;;;;;15.31;40.32;100784.00;4420749;32;34845;-49
2021/10/23 08:02:59;;;;;;;6.25;1.60;;;;;;;15.15;41.68;100776.22;4422134;32;35268;-50
2021/10/23 08:05:33;;;;;;;5.28;1.52;;;;;;;14.89;40.51;100784.16;4420998;32;33586;-50
2021/10/23 08:08:02;;;;;;;2.87;1.58;;;;;;;14.74;40.44;100785.06;4421926;32;34659;-50
2021/10/23 08:10:32;;;;;;;7.75;1.77;;;;;;;14.98;39.83;100789.37;4421292;32;34838;-49
2021/10/23 08:12:59;;;;;;;2.85;1.20;;;;;;;14.62;42.33;100781.59;4421718;32;34444;-52
2021/10/23 08:15:28;;;;;;;5.32;1.48;;;;;;;14.53;41.39;100784.19;4421662;32;33535;-50
2021/10/23 08:17:57;;;;;;;6.50;1.35;;;;;;;14.77;40.32;100789.41;4421461;32;33716;-48
2021/10/23 08:20:33;;;;;;;5.53;1.30;;;;;;;14.88;44.37;100792.91;4420667;32;34095;-49
2021/10/23 08:23:02;;;;;;;7.05;3.28;;;;;;;15.20;40.70;100785.81;4421925;32;35084;-49
2021/10/23 08:25:30;;;;;;;6.70;1.37;;;;;;;15.17;40.24;100800.66;4421964;32;33580;-49
2021/10/23 08:27:57;;;;;;;3.75;1.15;;;;;;;14.90;39.82;100788.53;4421827;32;33792;-48
2021/10/23 08:30:25;;;;;;;3.10;1.23;;;;;;;14.91;40.67;100790.25;4421758;32;35760;-49
2021/10/23 08:32:52;;;;;;;7.37;1.12;;;;;;;14.83;40.84;100800.75;4421778;32;34901;-48
2021/10/23 08:35:19;;;;;;;5.12;1.40;;;;;;;14.97;39.76;100800.75;4421665;32;33547;-48
2021/10/23 08:37:48;;;;;;;2.70;1.23;;;;;;;15.07;39.44;100799.81;4420574;32;34052;-49
2021/10/23 08:40:15;;;;;;;5.25;1.35;;;;;;;15.08;40.11;100791.09;4421576;32;34739;-48
2021/10/23 08:42:43;;;;;;;5.97;1.67;;;;;;;15.05;40.64;100792.87;4421717;32;34271;-50
2021/10/23 08:45:12;;;;;;;3.70;1.12;;;;;;;14.99;40.95;100796.37;4421660;32;33657;-47
2021/10/23 08:47:41;;;;;;;5.82;2.62;;;;;;;14.70;41.32;100795.53;4421607;32;34695;-48
2021/10/23 08:50:11;;;;;;;6.07;1.62;;;;;;;15.10;40.54;100802.44;4421085;32;34769;-48
2021/10/23 08:52:39;;;;;;;4.65;1.55;;;;;;;14.91;39.96;100800.72;4421770;32;35204;-49
2021/10/23 08:55:07;;;;;;;4.10;1.55;;;;;;;14.48;41.15;100801.66;4421623;32;34565;-49
2021/10/23 08:57:34;;;;;;;4.12;1.33;;;;;;;14.71;40.60;100799.91;4420168;32;33362;-48
2021/10/23 09:00:04;;;;;;;4.10;1.12;;;;;;;14.75;41.80;100796.41;4421319;32;34546;-48
2021/10/23 09:02:31;;;;;;;4.90;1.00;;;;;;;14.61;40.99;100799.03;4421303;32;34199;-48
2021/10/23 09:04:59;;;;;;;3.65;1.20;;;;;;;14.66;40.79;100797.28;4421288;32;33689;-48
2021/10/23 09:07:27;;;;;;;3.50;1.25;;;;;;;14.71;40.45;100794.66;4421336;32;34004;-48
2021/10/23 09:10:05;;;;;;;3.20;0.85;;;;;;;14.66;40.85;100809.50;4421090;32;34676;-48
2021/10/23 09:12:35;;;;;;;4.18;1.25;;;;;;;14.61;40.74;100799.03;4421189;32;35220;-48
2021/10/23 09:15:16;;;;;;;4.97;1.37;;;;;;;14.63;41.17;100801.66;4421224;32;32759;-47
2021/10/23 09:17:48;;;;;;;4.12;1.30;;;;;;;14.47;41.20;100813.00;4421647;32;33736;-48
2021/10/23 09:20:16;;;;;;;4.40;1.10;;;;;;;14.39;41.15;100806.87;4422203;32;34840;-48
2021/10/23 09:22:46;;;;;;;3.45;1.12;;;;;;;14.62;41.23;100802.53;4423252;32;34302;-48
2021/10/23 09:25:27;;;;;;;4.30;1.80;;;;;;;14.52;41.34;100804.28;4422324;32;34461;-47
2021/10/23 09:28:05;;;;;;;3.72;1.67;;;;;;;14.66;40.47;100809.50;4423472;32;34904;-48
2021/10/23 09:30:35;;;;;;;4.22;1.80;;;;;;;14.70;41.29;100806.00;4423275;32;35542;-48
2021/10/23 09:33:21;;;;;;;4.53;1.65;;;;;;;14.76;40.92;100811.25;4423401;32;35070;-48
2021/10/23 09:35:50;;;;;;;5.28;1.30;;;;;;;15.03;40.64;100823.41;4423333;32;33573;-48
2021/10/23 09:38:20;;;;;;;2.78;0.90;;;;;;;15.14;39.78;100822.50;4423361;32;35345;-47
2021/10/23 09:40:50;;;;;;;1.62;0.85;;;;;;;14.86;40.41;100815.56;4423082;32;34802;-47
2021/10/23 09:43:21;;;;;;;4.70;1.23;;;;;;;14.86;40.18;100812.97;4423211;32;34252;-49
2021/10/23 09:45:57;;;;;;;3.40;1.12;;;;;;;14.95;40.29;100814.72;4423119;32;33567;-48
2021/10/23 09:48:48;;;;;;;4.62;1.45;;;;;;;15.13;40.69;100807.69;4423225;32;34530;-48
2021/10/23 09:51:28;;;;;;;3.22;1.05;;;;;;;15.22;40.87;100807.66;4422174;32;35686;-49
2021/10/23 09:54:03;;;;;;;3.62;1.27;;;;;;;15.43;39.78;100809.31;4421936;32;34373;-48
2021/10/23 09:56:38;;;;;;;3.60;1.08;;;;;;;15.27;39.32;100813.75;4423208;32;34628;-48
2021/10/23 09:59:11;;;;;;;7.75;3.33;;;;;;;15.37;39.32;100809.34;4423439;32;33739;-48
2021/10/23 10:01:40;;;;;;;3.22;1.30;;;;;;;15.45;39.50;100807.63;4421926;32;34746;-48
2021/10/23 10:04:13;;;;;;;2.10;0.90;;;;;;;15.20;39.18;100806.78;4423009;32;34759;-47
2021/10/23 10:06:47;;;;;;;5.00;1.67;;;;;;;15.25;38.42;100794.53;4421939;32;34438;-49
2021/10/23 10:09:25;;;;;;;4.15;1.20;;;;;;;15.35;38.62;100792.75;4423106;32;33793;-48
2021/10/23 10:11:55;;;;;;;2.65;1.12;;;;;;;15.54;38.74;100782.22;4423136;32;34870;-48
2021/10/23 10:14:27;;;;;;;3.80;1.23;;;;;;;15.32;38.63;100784.91;4422967;32;34416;-48
2021/10/23 10:16:56;;;;;;;2.95;2.22;;;;;;;15.24;38.72;100782.31;4423138;32;34126;-48
2021/10/23 10:19:23;;;;;;;2.58;0.98;;;;;;;15.29;38.78;100777.91;4422927;32;34564;-48
2021/10/23 10:21:54;;;;;;;4.32;1.90;;;;;;;15.35;38.82;100779.66;4421652;32;34698;-48
2021/10/23 10:24:28;;;;;;;3.28;1.10;;;;;;;15.33;38.83;100777.00;4422834;32;34951;-48
2021/10/23 10:27:04;;;;;;;3.17;1.20;;;;;;;15.62;38.05;100778.69;4423022;32;33468;-48
2021/10/23 10:29:57;;;;;;;2.33;1.17;;;;;;;15.57;37.99;100776.06;4422365;32;34767;-48
2021/10/23 10:32:40;;;;;;;2.47;1.02;;;;;;;15.67;38.35;100769.91;4422929;32;34897;-49
2021/10/23 10:38:27;;;;;;;4.30;1.12;;;;;;;15.78;37.54;100769.84;4422792;32;34536;-48
2021/10/23 10:43:18;;;;;;;2.58;0.85;;;;;;;15.73;37.13;100766.37;4422737;32;35354;-48
2021/10/23 10:45:53;;;;;;;2.35;0.80;;;;;;;15.64;38.15;100771.69;4422692;32;34394;-49
2021/10/23 10:48:27;;;;;;;2.33;0.85;;;;;;;15.90;36.41;100770.62;4422824;32;33653;-48
2021/10/23 10:50:57;;;;;;;2.20;0.90;;;;;;;16.05;35.42;100764.41;4422630;32;34409;-48
2021/10/23 10:53:28;;;;;;;3.62;1.10;;;;;;;16.11;35.61;100756.50;4421542;32;35912;-48
2021/10/23 10:56:06;;;;;;;6.60;1.17;;;;;;;16.11;34.91;100761.75;4422705;32;34355;-47
2021/10/23 10:58:55;;;;;;;4.30;1.05;;;;;;;15.95;35.65;100765.38;4422776;32;33980;-48
2021/10/23 11:01:29;;;;;;;2.40;0.70;;;;;;;16.10;35.98;100765.25;4421489;32;33954;-48
2021/10/23 11:03:57;;;;;;;2.25;0.90;;;;;;;16.12;34.74;100768.72;4422730;32;34687;-48
2021/10/23 11:06:36;;;;;;;2.60;1.30;;;;;;;15.92;34.82;100774.12;4422576;32;34471;-48
2021/10/23 11:09:07;;;;;;;2.20;0.80;;;;;;;16.04;35.84;100783.69;4422749;32;33527;-48
2021/10/23 11:11:44;;;;;;;2.28;0.68;;;;;;;15.51;36.45;100776.13;4422712;32;34736;-48
2021/10/23 11:14:24;;;;;;;2.75;0.98;;;;;;;15.44;35.54;100764.78;4422604;32;34657;-47
2021/10/23 11:16:54;;;;;;;1.85;0.70;;;;;;;15.61;35.97;100772.56;4422733;32;35327;-48
2021/10/23 11:19:52;;;;;;;3.10;0.70;;;;;;;15.66;35.45;100790.91;4422865;32;33572;-47
2021/10/23 11:22:22;;;;;;;1.95;0.80;;;;;;;15.51;35.85;100766.50;4416390;32;33533;-48
2021/10/23 11:24:52;;;;;;;2.75;1.02;;;;;;;15.36;35.22;100769.16;4422444;32;35489;-47
2021/10/23 11:27:42;;;;;;;2.22;0.80;;;;;;;15.15;36.22;100773.59;4422656;32;34327;-47
2021/10/23 11:30:17;;;;;;;2.67;0.80;;;;;;;15.08;36.72;100778.00;4422613;32;33457;-47
2021/10/23 11:33:04;;;;;;;2.12;0.80;;;;;;;15.28;36.51;100785.78;4422564;32;34697;-47
2021/10/23 11:35:46;;;;;;;1.62;0.65;;;;;;;15.13;36.10;100773.63;4422450;32;34963;-47
2021/10/23 11:38:24;;;;;;;2.85;1.00;;;;;;;15.38;36.41;100777.88;4422491;32;34294;-50
2021/10/23 11:40:57;;;;;;;3.62;0.98;;;;;;;15.09;37.63;100779.75;4419839;32;33736;-47